createdAt,value
2018-04-14T00:00:22.830Z,0
2018-04-14T00:01:22.590Z,0
2018-04-14T00:02:22.617Z,0
2018-04-14T00:03:22.371Z,0
2018-04-14T00:04:22.917Z,0
2018-04-14T00:05:22.967Z,0
2018-04-14T00:06:22.976Z,0
2018-04-14T00:07:22.971Z,0
2018-04-14T00:08:22.742Z,0
2018-04-14T00:09:23.009Z,0
2018-04-14T00:10:23.030Z,0
2018-04-14T00:11:23.213Z,0
2018-04-14T00:12:22.867Z,0
2018-04-14T00:13:22.582Z,0
2018-04-14T00:14:23.119Z,0
2018-04-14T00:15:22.631Z,0
2018-04-14T00:16:22.634Z,0
2018-04-14T00:17:22.907Z,0
2018-04-14T00:18:23.188Z,0
2018-04-14T00:19:23.204Z,0
2018-04-14T00:20:23.270Z,0
2018-04-14T00:21:23.243Z,0
2018-04-14T00:22:23.262Z,0
2018-04-14T00:23:23.030Z,0
2018-04-14T00:24:23.303Z,0
2018-04-14T00:25:23.356Z,0
2018-04-14T00:26:22.834Z,0
2018-04-14T00:27:23.119Z,0
2018-04-14T00:28:23.145Z,0
2018-04-14T00:29:23.407Z,0
2018-04-14T00:30:23.130Z,0
2018-04-14T00:31:23.458Z,0
2018-04-14T00:32:22.963Z,0
2018-04-14T00:33:23.228Z,0
2018-04-14T00:34:23.525Z,0
2018-04-14T00:35:23.571Z,0
2018-04-14T00:36:23.283Z,0
2018-04-14T00:37:23.559Z,0
2018-04-14T00:38:23.529Z,0
2018-04-14T00:39:23.362Z,0
2018-04-14T00:40:23.621Z,0
2018-04-14T00:41:23.398Z,0
2018-04-14T00:42:23.409Z,0
2018-04-14T00:43:23.173Z,0
2018-04-14T00:44:23.699Z,0
2018-04-14T00:45:23.211Z,0
2018-04-14T00:46:23.216Z,0
2018-04-14T00:47:23.500Z,0
2018-04-14T00:48:23.001Z,0
2018-04-14T00:49:23.530Z,0
2018-04-14T00:50:23.867Z,0
2018-04-14T00:51:23.567Z,0
2018-04-14T00:52:23.839Z,0
2018-04-14T00:53:23.859Z,0
2018-04-14T00:54:23.875Z,0
2018-04-14T00:55:23.898Z,0
2018-04-14T00:56:23.939Z,0
2018-04-14T00:57:23.684Z,0
2018-04-14T00:58:23.984Z,0
2018-04-14T00:59:23.485Z,0
2018-04-14T01:00:23.762Z,0
2018-04-14T01:01:24.066Z,0
2018-04-14T01:02:24.054Z,0
2018-04-14T01:03:24.077Z,0
2018-04-14T01:04:23.842Z,0
2018-04-14T01:05:23.929Z,0
2018-04-14T01:06:23.881Z,0
2018-04-14T01:07:23.895Z,0
2018-04-14T01:08:23.917Z,0
2018-04-14T01:09:23.693Z,0
2018-04-14T01:10:24.220Z,0
2018-04-14T01:11:24.226Z,0
2018-04-14T01:12:24.000Z,0
2018-04-14T01:13:24.010Z,0
2018-04-14T01:14:24.043Z,0
2018-04-14T01:15:23.804Z,0
2018-04-14T01:16:23.872Z,0
2018-04-14T01:17:24.348Z,0
2018-04-14T01:18:24.380Z,0
2018-04-14T01:19:24.400Z,0
2018-04-14T01:20:23.967Z,0
2018-04-14T01:21:24.421Z,0
2018-04-14T01:22:24.441Z,0
2018-04-14T01:23:24.464Z,0
2018-04-14T01:24:24.229Z,0
2018-04-14T01:25:24.286Z,0
2018-04-14T01:26:24.083Z,0
2018-04-14T01:27:24.543Z,0
2018-04-14T01:28:24.312Z,0
2018-04-14T01:29:24.331Z,0
2018-04-14T01:30:24.071Z,0
2018-04-14T01:31:24.642Z,0
2018-04-14T01:32:24.642Z,0
2018-04-14T01:33:24.137Z,0
2018-04-14T01:34:24.661Z,0
2018-04-14T01:35:24.885Z,0
2018-04-14T01:36:24.501Z,0
2018-04-14T01:37:24.464Z,0
2018-04-14T01:38:24.726Z,0
2018-04-14T01:39:24.500Z,0
2018-04-14T01:40:24.780Z,0
2018-04-14T01:41:24.817Z,0
2018-04-14T01:42:24.825Z,0
2018-04-14T01:43:24.602Z,0
2018-04-14T01:44:24.876Z,0
2018-04-14T01:45:24.636Z,0
2018-04-14T01:46:24.908Z,0
2018-04-14T01:47:24.436Z,0
2018-04-14T01:48:24.437Z,0
2018-04-14T01:49:24.970Z,0
2018-04-14T01:50:24.533Z,0
2018-04-14T01:51:25.012Z,0
2018-04-14T01:52:25.019Z,0
2018-04-14T01:53:25.037Z,0
2018-04-14T01:54:24.805Z,0
2018-04-14T01:55:24.567Z,0
2018-04-14T01:56:25.103Z,0
2018-04-14T01:57:24.873Z,0
2018-04-14T01:58:25.143Z,0
2018-04-14T01:59:24.909Z,0
2018-04-14T02:00:25.191Z,0
2018-04-14T02:01:24.951Z,0
2018-04-14T02:02:24.724Z,0
2018-04-14T02:03:25.230Z,0
2018-04-14T02:04:24.999Z,0
2018-04-14T02:05:24.818Z,0
2018-04-14T02:06:25.036Z,0
2018-04-14T02:07:25.308Z,0
2018-04-14T02:08:25.328Z,0
2018-04-14T02:09:25.096Z,0
2018-04-14T02:10:25.147Z,0
2018-04-14T02:11:25.398Z,0
2018-04-14T02:12:24.902Z,0
2018-04-14T02:13:24.722Z,0
2018-04-14T02:14:25.442Z,0
2018-04-14T02:15:25.251Z,0
2018-04-14T02:16:24.974Z,0
2018-04-14T02:17:25.248Z,0
2018-04-14T02:18:25.546Z,0
2018-04-14T02:19:25.665Z,0
2018-04-14T02:20:25.352Z,0
2018-04-14T02:21:24.813Z,0
2018-04-14T02:22:25.590Z,0
2018-04-14T02:23:25.614Z,0
2018-04-14T02:24:25.390Z,0
2018-04-14T02:25:25.651Z,0
2018-04-14T02:26:25.671Z,0
2018-04-14T02:27:25.698Z,0
2018-04-14T02:28:25.718Z,0
2018-04-14T02:29:25.485Z,0
2018-04-14T02:30:25.764Z,0
2018-04-14T02:31:25.775Z,0
2018-04-14T02:32:25.545Z,0
2018-04-14T02:33:25.305Z,0
2018-04-14T02:34:25.339Z,0
2018-04-14T02:35:25.397Z,0
2018-04-14T02:36:25.613Z,0
2018-04-14T02:37:25.636Z,0
2018-04-14T02:38:25.708Z,0
2018-04-14T02:39:25.932Z,0
2018-04-14T02:40:25.703Z,0
2018-04-14T02:41:25.464Z,0
2018-04-14T02:42:25.735Z,0
2018-04-14T02:43:25.260Z,0
2018-04-14T02:44:26.028Z,0
2018-04-14T02:45:25.533Z,0
2018-04-14T02:46:26.066Z,0
2018-04-14T02:47:25.826Z,0
2018-04-14T02:48:26.100Z,0
2018-04-14T02:49:26.145Z,0
2018-04-14T02:50:26.185Z,0
2018-04-14T02:51:25.890Z,0
2018-04-14T02:52:26.274Z,0
2018-04-14T02:53:25.935Z,0
2018-04-14T02:54:25.960Z,0
2018-04-14T02:55:26.228Z,0
2018-04-14T02:56:26.250Z,0
2018-04-14T02:57:26.015Z,0
2018-04-14T02:58:26.032Z,0
2018-04-14T02:59:26.053Z,0
2018-04-14T03:00:26.106Z,0
2018-04-14T03:01:25.576Z,0
2018-04-14T03:02:26.426Z,0
2018-04-14T03:03:26.135Z,0
2018-04-14T03:04:26.443Z,0
2018-04-14T03:05:26.210Z,0
2018-04-14T03:06:26.435Z,0
2018-04-14T03:07:26.467Z,0
2018-04-14T03:08:25.963Z,0
2018-04-14T03:09:26.235Z,0
2018-04-14T03:10:26.495Z,0
2018-04-14T03:11:26.534Z,0
2018-04-14T03:12:26.296Z,0
2018-04-14T03:13:26.598Z,0
2018-04-14T03:14:26.327Z,0
2018-04-14T03:15:26.603Z,0
2018-04-14T03:16:26.369Z,0
2018-04-14T03:17:26.180Z,0
2018-04-14T03:18:26.139Z,0
2018-04-14T03:19:26.423Z,0
2018-04-14T03:20:26.485Z,0
2018-04-14T03:21:26.716Z,0
2018-04-14T03:22:26.474Z,0
2018-04-14T03:23:26.494Z,0
2018-04-14T03:24:26.512Z,0
2018-04-14T03:25:26.528Z,0
2018-04-14T03:26:26.549Z,0
2018-04-14T03:27:26.813Z,0
2018-04-14T03:28:26.841Z,0
2018-04-14T03:29:26.876Z,0
2018-04-14T03:30:26.889Z,0
2018-04-14T03:31:27.089Z,0
2018-04-14T03:32:26.418Z,0
2018-04-14T03:33:26.945Z,0
2018-04-14T03:34:26.729Z,0
2018-04-14T03:35:26.777Z,0
2018-04-14T03:36:26.487Z,0
2018-04-14T03:37:27.027Z,0
2018-04-14T03:38:27.036Z,0
2018-04-14T03:39:26.804Z,0
2018-04-14T03:40:26.563Z,0
2018-04-14T03:41:26.590Z,0
2018-04-14T03:42:26.856Z,0
2018-04-14T03:43:27.130Z,0
2018-04-14T03:44:26.644Z,0
2018-04-14T03:45:27.169Z,0
2018-04-14T03:46:26.930Z,0
2018-04-14T03:47:26.709Z,0
2018-04-14T03:48:27.237Z,0
2018-04-14T03:49:27.247Z,0
2018-04-14T03:50:27.312Z,0
2018-04-14T03:51:27.022Z,0
2018-04-14T03:52:27.295Z,0
2018-04-14T03:53:27.057Z,0
2018-04-14T03:54:26.822Z,0
2018-04-14T03:55:27.347Z,0
2018-04-14T03:56:27.111Z,0
2018-04-14T03:57:26.879Z,0
2018-04-14T03:58:27.410Z,0
2018-04-14T03:59:27.181Z,0
2018-04-14T04:00:27.424Z,0
2018-04-14T04:01:27.444Z,0
2018-04-14T04:02:27.212Z,0
2018-04-14T04:03:27.256Z,0
2018-04-14T04:04:27.522Z,0
2018-04-14T04:05:27.592Z,0
2018-04-14T04:06:27.309Z,0
2018-04-14T04:07:27.576Z,0
2018-04-14T04:08:27.346Z,0
2018-04-14T04:09:26.851Z,0
2018-04-14T04:10:27.633Z,0
2018-04-14T04:11:27.378Z,0
2018-04-14T04:12:26.891Z,0
2018-04-14T04:13:27.417Z,0
2018-04-14T04:14:27.427Z,0
2018-04-14T04:15:27.193Z,0
2018-04-14T04:16:27.717Z,0
2018-04-14T04:17:27.255Z,0
2018-04-14T04:18:27.504Z,0
2018-04-14T04:19:27.269Z,0
2018-04-14T04:20:27.648Z,0
2018-04-14T04:21:27.570Z,0
2018-04-14T04:22:27.606Z,5
2018-04-14T04:23:27.935Z,5
2018-04-14T04:24:27.644Z,5
2018-04-14T04:25:27.678Z,5
2018-04-14T04:26:27.935Z,5
2018-04-14T04:27:27.950Z,5
2018-04-14T04:28:27.719Z,5
2018-04-14T04:29:27.997Z,10
2018-04-14T04:30:27.748Z,10
2018-04-14T04:31:28.029Z,10
2018-04-14T04:32:28.041Z,10
2018-04-14T04:33:27.804Z,10
2018-04-14T04:34:27.887Z,15
2018-04-14T04:35:27.659Z,15
2018-04-14T04:36:28.116Z,15
2018-04-14T04:37:27.885Z,15
2018-04-14T04:38:27.903Z,20
2018-04-14T04:39:27.917Z,20
2018-04-14T04:40:28.192Z,20
2018-04-14T04:41:27.952Z,20
2018-04-14T04:42:27.977Z,25
2018-04-14T04:43:27.999Z,25
2018-04-14T04:44:27.754Z,25
2018-04-14T04:45:27.785Z,25
2018-04-14T04:46:28.305Z,30
2018-04-14T04:47:28.063Z,30
2018-04-14T04:48:27.827Z,30
2018-04-14T04:49:27.845Z,35
2018-04-14T04:50:28.171Z,35
2018-04-14T04:51:28.136Z,35
2018-04-14T04:52:28.411Z,40
2018-04-14T04:53:28.423Z,40
2018-04-14T04:54:27.945Z,45
2018-04-14T04:55:28.212Z,55
2018-04-14T04:56:28.493Z,50
2018-04-14T04:57:28.005Z,45
2018-04-14T04:58:28.269Z,45
2018-04-14T04:59:28.539Z,50
2018-04-14T05:00:28.310Z,50
2018-04-14T05:01:28.078Z,55
2018-04-14T05:02:28.088Z,55
2018-04-14T05:03:28.615Z,55
2018-04-14T05:04:28.628Z,55
2018-04-14T05:05:28.445Z,55
2018-04-14T05:06:28.417Z,60
2018-04-14T05:07:28.178Z,60
2018-04-14T05:08:28.709Z,60
2018-04-14T05:09:28.739Z,65
2018-04-14T05:10:28.507Z,65
2018-04-14T05:11:28.509Z,65
2018-04-14T05:12:28.782Z,70
2018-04-14T05:13:28.348Z,70
2018-04-14T05:14:28.054Z,70
2018-04-14T05:15:28.842Z,70
2018-04-14T05:16:28.881Z,70
2018-04-14T05:17:28.876Z,75
2018-04-14T05:18:28.650Z,75
2018-04-14T05:19:28.408Z,75
2018-04-14T05:20:28.979Z,75
2018-04-14T05:21:28.699Z,80
2018-04-14T05:22:28.970Z,80
2018-04-14T05:23:28.740Z,75
2018-04-14T05:24:28.493Z,80
2018-04-14T05:25:28.567Z,80
2018-04-14T05:26:28.537Z,80
2018-04-14T05:27:29.062Z,80
2018-04-14T05:28:28.830Z,80
2018-04-14T05:29:28.848Z,75
2018-04-14T05:30:29.118Z,75
2018-04-14T05:31:28.905Z,80
2018-04-14T05:32:28.909Z,80
2018-04-14T05:33:29.176Z,85
2018-04-14T05:34:28.955Z,85
2018-04-14T05:35:29.012Z,90
2018-04-14T05:36:28.731Z,90
2018-04-14T05:37:28.795Z,90
2018-04-14T05:38:29.025Z,95
2018-04-14T05:39:28.789Z,100
2018-04-14T05:40:29.049Z,100
2018-04-14T05:41:29.333Z,105
2018-04-14T05:42:29.089Z,105
2018-04-14T05:43:29.360Z,110
2018-04-14T05:44:29.409Z,110
2018-04-14T05:45:28.891Z,110
2018-04-14T05:46:29.437Z,110
2018-04-14T05:47:28.936Z,115
2018-04-14T05:48:29.457Z,120
2018-04-14T05:49:29.223Z,120
2018-04-14T05:50:29.287Z,120
2018-04-14T05:51:29.009Z,120
2018-04-14T05:52:29.298Z,120
2018-04-14T05:53:29.559Z,120
2018-04-14T05:54:29.316Z,125
2018-04-14T05:55:29.338Z,125
2018-04-14T05:56:29.619Z,125
2018-04-14T05:57:29.639Z,130
2018-04-14T05:58:29.654Z,130
2018-04-14T05:59:29.163Z,130
2018-04-14T06:00:29.181Z,135
2018-04-14T06:01:29.463Z,135
2018-04-14T06:02:29.475Z,135
2018-04-14T06:03:29.752Z,140
2018-04-14T06:04:29.008Z,140
2018-04-14T06:05:29.836Z,140
2018-04-14T06:06:29.294Z,140
2018-04-14T06:07:29.833Z,145
2018-04-14T06:08:29.588Z,145
2018-04-14T06:09:29.869Z,145
2018-04-14T06:10:29.638Z,145
2018-04-14T06:11:29.908Z,150
2018-04-14T06:12:29.425Z,150
2018-04-14T06:13:29.686Z,150
2018-04-14T06:14:29.449Z,150
2018-04-14T06:15:29.727Z,155
2018-04-14T06:16:30.006Z,155
2018-04-14T06:17:30.027Z,155
2018-04-14T06:18:30.044Z,160
2018-04-14T06:19:29.560Z,160
2018-04-14T06:20:30.138Z,160
2018-04-14T06:21:29.602Z,160
2018-04-14T06:22:29.953Z,165
2018-04-14T06:23:29.891Z,150
2018-04-14T06:24:29.905Z,155
2018-04-14T06:25:29.674Z,165
2018-04-14T06:26:30.201Z,165
2018-04-14T06:27:30.217Z,170
2018-04-14T06:28:29.983Z,175
2018-04-14T06:29:30.011Z,175
2018-04-14T06:30:30.332Z,175
2018-04-14T06:31:30.300Z,180
2018-04-14T06:32:30.328Z,170
2018-04-14T06:33:30.085Z,185
2018-04-14T06:34:30.376Z,185
2018-04-14T06:35:30.493Z,180
2018-04-14T06:36:30.149Z,185
2018-04-14T06:37:30.170Z,185
2018-04-14T06:38:30.455Z,190
2018-04-14T06:39:30.292Z,185
2018-04-14T06:40:30.480Z,190
2018-04-14T06:41:30.497Z,190
2018-04-14T06:42:30.266Z,190
2018-04-14T06:43:30.288Z,190
2018-04-14T06:44:30.560Z,190
2018-04-14T06:45:30.422Z,190
2018-04-14T06:46:30.791Z,195
2018-04-14T06:47:30.369Z,195
2018-04-14T06:48:30.642Z,195
2018-04-14T06:49:29.898Z,195
2018-04-14T06:50:30.483Z,190
2018-04-14T06:51:30.443Z,190
2018-04-14T06:52:30.455Z,190
2018-04-14T06:53:30.734Z,195
2018-04-14T06:54:30.508Z,195
2018-04-14T06:55:30.268Z,200
2018-04-14T06:56:30.539Z,200
2018-04-14T06:57:30.567Z,200
2018-04-14T06:58:30.586Z,200
2018-04-14T06:59:30.606Z,200
2018-04-14T07:00:30.875Z,205
2018-04-14T07:01:30.904Z,205
2018-04-14T07:02:30.411Z,210
2018-04-14T07:03:30.441Z,205
2018-04-14T07:04:30.882Z,215
2018-04-14T07:05:30.782Z,215
2018-04-14T07:06:31.001Z,220
2018-04-14T07:07:30.769Z,220
2018-04-14T07:08:31.054Z,220
2018-04-14T07:09:30.311Z,225
2018-04-14T07:10:30.323Z,225
2018-04-14T07:11:31.109Z,230
2018-04-14T07:12:31.131Z,230
2018-04-14T07:13:31.147Z,230
2018-04-14T07:14:31.174Z,235
2018-04-14T07:15:31.229Z,235
2018-04-14T07:16:30.720Z,235
2018-04-14T07:17:30.725Z,240
2018-04-14T07:18:31.033Z,230
2018-04-14T07:19:31.279Z,240
2018-04-14T07:20:30.851Z,235
2018-04-14T07:21:31.069Z,240
2018-04-14T07:22:31.095Z,240
2018-04-14T07:23:31.112Z,235
2018-04-14T07:24:30.883Z,240
2018-04-14T07:25:31.155Z,235
2018-04-14T07:26:30.908Z,240
2018-04-14T07:27:30.940Z,250
2018-04-14T07:28:30.953Z,250
2018-04-14T07:29:30.828Z,250
2018-04-14T07:30:31.247Z,250
2018-04-14T07:31:31.536Z,250
2018-04-14T07:32:31.396Z,255
2018-04-14T07:33:31.577Z,255
2018-04-14T07:34:31.343Z,255
2018-04-14T07:35:31.115Z,255
2018-04-14T07:36:31.128Z,255
2018-04-14T07:37:30.949Z,255
2018-04-14T07:38:31.413Z,260
2018-04-14T07:39:31.737Z,255
2018-04-14T07:40:31.213Z,260
2018-04-14T07:41:31.501Z,260
2018-04-14T07:42:31.521Z,255
2018-04-14T07:43:31.797Z,265
2018-04-14T07:44:31.572Z,260
2018-04-14T07:45:31.845Z,265
2018-04-14T07:46:31.611Z,270
2018-04-14T07:47:31.633Z,275
2018-04-14T07:48:31.904Z,275
2018-04-14T07:49:31.928Z,270
2018-04-14T07:50:31.957Z,270
2018-04-14T07:51:31.719Z,275
2018-04-14T07:52:31.733Z,260
2018-04-14T07:53:32.012Z,260
2018-04-14T07:54:31.827Z,265
2018-04-14T07:55:31.822Z,265
2018-04-14T07:56:31.570Z,275
2018-04-14T07:57:32.106Z,275
2018-04-14T07:58:31.876Z,280
2018-04-14T07:59:32.151Z,290
2018-04-14T08:00:32.167Z,290
2018-04-14T08:01:31.950Z,295
2018-04-14T08:02:31.721Z,295
2018-04-14T08:03:31.728Z,275
2018-04-14T08:04:32.297Z,290
2018-04-14T08:05:32.285Z,305
2018-04-14T08:06:32.299Z,305
2018-04-14T08:07:32.074Z,305
2018-04-14T08:08:32.362Z,305
2018-04-14T08:09:32.528Z,300
2018-04-14T08:10:31.891Z,310
2018-04-14T08:11:31.919Z,305
2018-04-14T08:12:32.445Z,310
2018-04-14T08:13:31.966Z,305
2018-04-14T08:14:32.212Z,300
2018-04-14T08:15:32.486Z,300
2018-04-14T08:16:32.262Z,300
2018-04-14T08:17:32.039Z,310
2018-04-14T08:18:32.726Z,315
2018-04-14T08:19:32.329Z,320
2018-04-14T08:20:32.606Z,305
2018-04-14T08:21:32.385Z,320
2018-04-14T08:22:32.150Z,315
2018-04-14T08:23:32.433Z,320
2018-04-14T08:24:32.506Z,320
2018-04-14T08:25:32.481Z,310
2018-04-14T08:26:32.521Z,320
2018-04-14T08:27:32.543Z,325
2018-04-14T08:28:32.306Z,320
2018-04-14T08:29:32.590Z,320
2018-04-14T08:30:32.614Z,330
2018-04-14T08:31:32.891Z,325
2018-04-14T08:32:32.411Z,325
2018-04-14T08:33:32.943Z,335
2018-04-14T08:34:32.548Z,345
2018-04-14T08:35:32.746Z,355
2018-04-14T08:36:32.762Z,355
2018-04-14T08:37:33.148Z,350
2018-04-14T08:38:33.053Z,345
2018-04-14T08:39:32.363Z,345
2018-04-14T08:40:33.100Z,345
2018-04-14T08:41:32.961Z,340
2018-04-14T08:42:32.904Z,345
2018-04-14T08:43:32.664Z,345
2018-04-14T08:44:32.949Z,350
2018-04-14T08:45:32.976Z,350
2018-04-14T08:46:33.245Z,355
2018-04-14T08:47:32.760Z,355
2018-04-14T08:48:32.518Z,355
2018-04-14T08:49:33.298Z,360
2018-04-14T08:50:33.078Z,365
2018-04-14T08:51:33.386Z,365
2018-04-14T08:52:32.876Z,370
2018-04-14T08:53:32.637Z,370
2018-04-14T08:54:33.472Z,370
2018-04-14T08:55:33.196Z,365
2018-04-14T08:56:33.416Z,375
2018-04-14T08:57:33.492Z,375
2018-04-14T08:58:33.261Z,375
2018-04-14T08:59:33.586Z,375
2018-04-14T09:00:33.596Z,375
2018-04-14T09:01:33.614Z,375
2018-04-14T09:02:33.643Z,375
2018-04-14T09:03:33.403Z,375
2018-04-14T09:04:33.429Z,375
2018-04-14T09:05:33.708Z,370
2018-04-14T09:06:33.480Z,385
2018-04-14T09:07:33.507Z,380
2018-04-14T09:08:33.535Z,380
2018-04-14T09:09:33.623Z,380
2018-04-14T09:10:33.570Z,385
2018-04-14T09:11:33.329Z,390
2018-04-14T09:12:33.373Z,395
2018-04-14T09:13:33.133Z,395
2018-04-14T09:14:33.420Z,395
2018-04-14T09:15:33.693Z,405
2018-04-14T09:16:33.986Z,425
2018-04-14T09:17:34.090Z,475
2018-04-14T09:18:33.518Z,515
2018-04-14T09:19:33.802Z,525
2018-04-14T09:20:33.831Z,530
2018-04-14T09:21:33.601Z,530
2018-04-14T09:22:34.123Z,530
2018-04-14T09:23:33.896Z,545
2018-04-14T09:24:33.976Z,535
2018-04-14T09:25:33.950Z,545
2018-04-14T09:26:34.182Z,540
2018-04-14T09:27:33.760Z,555
2018-04-14T09:28:34.286Z,555
2018-04-14T09:29:33.547Z,565
2018-04-14T09:30:34.338Z,545
2018-04-14T09:31:34.369Z,565
2018-04-14T09:32:34.136Z,565
2018-04-14T09:33:34.415Z,555
2018-04-14T09:34:34.044Z,545
2018-04-14T09:35:34.472Z,540
2018-04-14T09:36:34.236Z,535
2018-04-14T09:37:34.269Z,550
2018-04-14T09:38:34.300Z,555
2018-04-14T09:39:34.454Z,565
2018-04-14T09:40:34.106Z,575
2018-04-14T09:41:34.644Z,570
2018-04-14T09:42:34.677Z,570
2018-04-14T09:43:34.196Z,550
2018-04-14T09:44:34.747Z,545
2018-04-14T09:45:34.005Z,545
2018-04-14T09:46:34.536Z,550
2018-04-14T09:47:34.304Z,510
2018-04-14T09:48:34.867Z,545
2018-04-14T09:49:34.648Z,545
2018-04-14T09:50:34.397Z,555
2018-04-14T09:51:34.427Z,555
2018-04-14T09:52:34.956Z,545
2018-04-14T09:53:34.747Z,545
2018-04-14T09:54:35.065Z,545
2018-04-14T09:55:35.044Z,560
2018-04-14T09:56:34.756Z,555
2018-04-14T09:57:34.852Z,555
2018-04-14T09:58:35.148Z,555
2018-04-14T09:59:34.914Z,560
2018-04-14T10:00:35.203Z,545
2018-04-14T10:01:35.236Z,540
2018-04-14T10:02:35.267Z,550
2018-04-14T10:03:35.299Z,560
2018-04-14T10:04:34.850Z,580
2018-04-14T10:05:35.103Z,580
2018-04-14T10:06:35.142Z,580
2018-04-14T10:07:34.909Z,595
2018-04-14T10:08:34.685Z,575
2018-04-14T10:09:35.224Z,570
2018-04-14T10:10:35.734Z,585
2018-04-14T10:11:35.583Z,575
2018-04-14T10:12:35.570Z,570
2018-04-14T10:13:35.595Z,580
2018-04-14T10:14:35.374Z,590
2018-04-14T10:15:35.669Z,590
2018-04-14T10:16:35.742Z,585
2018-04-14T10:17:35.476Z,585
2018-04-14T10:18:35.508Z,580
2018-04-14T10:19:35.535Z,585
2018-04-14T10:20:35.827Z,585
2018-04-14T10:21:35.854Z,590
2018-04-14T10:22:35.628Z,585
2018-04-14T10:23:35.396Z,590
2018-04-14T10:24:35.679Z,590
2018-04-14T10:25:35.966Z,590
2018-04-14T10:26:35.499Z,580
2018-04-14T10:27:35.535Z,570
2018-04-14T10:28:35.557Z,570
2018-04-14T10:29:35.847Z,580
2018-04-14T10:30:36.130Z,590
2018-04-14T10:31:36.054Z,610
2018-04-14T10:32:36.201Z,620
2018-04-14T10:33:35.728Z,620
2018-04-14T10:34:36.028Z,625
2018-04-14T10:35:36.045Z,620
2018-04-14T10:36:36.325Z,620
2018-04-14T10:37:36.131Z,615
2018-04-14T10:38:36.393Z,620
2018-04-14T10:39:36.547Z,620
2018-04-14T10:40:36.474Z,625
2018-04-14T10:41:36.488Z,645
2018-04-14T10:42:36.535Z,640
2018-04-14T10:43:36.579Z,630
2018-04-14T10:44:36.332Z,630
2018-04-14T10:45:36.338Z,630
2018-04-14T10:46:36.425Z,625
2018-04-14T10:47:36.402Z,635
2018-04-14T10:48:36.189Z,645
2018-04-14T10:49:36.712Z,650
2018-04-14T10:50:36.752Z,645
2018-04-14T10:51:36.027Z,645
2018-04-14T10:52:36.059Z,645
2018-04-14T10:53:36.909Z,645
2018-04-14T10:54:36.914Z,655
2018-04-14T10:55:36.442Z,670
2018-04-14T10:56:36.719Z,690
2018-04-14T10:57:36.737Z,710
2018-04-14T10:58:36.770Z,700
2018-04-14T10:59:37.062Z,715
2018-04-14T11:00:36.323Z,705
2018-04-14T11:01:36.667Z,695
2018-04-14T11:02:36.645Z,690
2018-04-14T11:03:36.956Z,715
2018-04-14T11:04:37.242Z,725
2018-04-14T11:05:36.526Z,735
2018-04-14T11:06:36.798Z,760
2018-04-14T11:07:36.827Z,800
2018-04-14T11:08:37.133Z,765
2018-04-14T11:09:36.874Z,720
2018-04-14T11:10:36.661Z,740
2018-04-14T11:11:36.947Z,720
2018-04-14T11:12:36.982Z,730
2018-04-14T11:13:37.277Z,765
2018-04-14T11:14:37.291Z,835
2018-04-14T11:15:37.595Z,905
2018-04-14T11:16:37.165Z,875
2018-04-14T11:17:37.650Z,800
2018-04-14T11:18:37.203Z,770
2018-04-14T11:19:37.491Z,800
2018-04-14T11:20:38.050Z,850
2018-04-14T11:21:37.405Z,835
2018-04-14T11:22:37.590Z,775
2018-04-14T11:23:37.380Z,765
2018-04-14T11:24:37.920Z,745
2018-04-14T11:25:37.974Z,735
2018-04-14T11:26:37.229Z,715
2018-04-14T11:27:37.774Z,750
2018-04-14T11:28:37.802Z,785
2018-04-14T11:29:38.094Z,845
2018-04-14T11:30:37.876Z,915
2018-04-14T11:31:38.310Z,905
2018-04-14T11:32:38.193Z,855
2018-04-14T11:33:37.461Z,840
2018-04-14T11:34:38.012Z,830
2018-04-14T11:35:38.049Z,790
2018-04-14T11:36:37.567Z,790
2018-04-14T11:37:37.866Z,775
2018-04-14T11:38:38.400Z,765
2018-04-14T11:39:38.462Z,765
2018-04-14T11:40:38.225Z,775
2018-04-14T11:41:38.260Z,800
2018-04-14T11:42:38.039Z,825
2018-04-14T11:43:38.426Z,865
2018-04-14T11:44:38.349Z,895
2018-04-14T11:45:38.667Z,930
2018-04-14T11:46:38.725Z,955
2018-04-14T11:47:38.711Z,985
2018-04-14T11:48:38.752Z,1035
2018-04-14T11:49:38.277Z,1085
2018-04-14T11:50:38.824Z,1165
2018-04-14T11:51:38.602Z,1240
2018-04-14T11:52:38.633Z,1270
2018-04-14T11:53:38.949Z,1245
2018-04-14T11:54:38.700Z,1255
2018-04-14T11:55:38.756Z,1300
2018-04-14T11:56:39.043Z,1240
2018-04-14T11:57:38.818Z,1255
2018-04-14T11:58:38.879Z,1275
2018-04-14T11:59:39.150Z,1270
2018-04-14T12:00:39.171Z,1320
2018-04-14T12:01:39.024Z,1415
2018-04-14T12:02:38.997Z,1510
2018-04-14T12:03:39.358Z,1595
2018-04-14T12:04:38.816Z,1620
2018-04-14T12:05:38.845Z,1610
2018-04-14T12:06:39.389Z,1735
2018-04-14T12:07:39.445Z,1770
2018-04-14T12:08:39.219Z,1780
2018-04-14T12:09:39.245Z,1720
2018-04-14T12:10:39.527Z,1685
2018-04-14T12:11:39.328Z,1765
2018-04-14T12:12:39.619Z,1815
2018-04-14T12:13:39.390Z,1750
2018-04-14T12:14:39.427Z,1690
2018-04-14T12:15:39.723Z,1815
2018-04-14T12:16:39.548Z,1870
2018-04-14T12:17:39.535Z,1840
2018-04-14T12:18:39.571Z,1820
2018-04-14T12:19:39.607Z,1890
2018-04-14T12:20:39.906Z,1795
2018-04-14T12:21:39.175Z,1695
2018-04-14T12:22:39.824Z,1655
2018-04-14T12:23:40.020Z,1610
2018-04-14T12:24:39.788Z,1670
2018-04-14T12:25:40.103Z,1705
2018-04-14T12:26:39.606Z,1700
2018-04-14T12:27:39.902Z,1690
2018-04-14T12:28:39.667Z,1705
2018-04-14T12:29:40.241Z,1705
2018-04-14T12:30:40.001Z,1710
2018-04-14T12:31:40.343Z,1790
2018-04-14T12:32:39.573Z,1925
2018-04-14T12:33:40.395Z,1990
2018-04-14T12:34:40.547Z,1915
2018-04-14T12:35:39.940Z,1815
2018-04-14T12:36:40.020Z,1920
2018-04-14T12:37:40.280Z,2105
2018-04-14T12:38:40.041Z,2035
2018-04-14T12:39:40.595Z,1665
2018-04-14T12:40:40.131Z,1755
2018-04-14T12:41:40.157Z,1680
2018-04-14T12:42:40.438Z,2010
2018-04-14T12:43:40.234Z,2100
2018-04-14T12:44:40.521Z,2100
2018-04-14T12:45:40.554Z,2070
2018-04-14T12:46:40.593Z,2155
2018-04-14T12:47:40.122Z,2240
2018-04-14T12:48:40.920Z,2150
2018-04-14T12:49:40.692Z,2120
2018-04-14T12:50:40.733Z,2020
2018-04-14T12:51:40.810Z,2215
2018-04-14T12:52:40.795Z,2425
2018-04-14T12:53:40.857Z,2480
2018-04-14T12:54:40.878Z,2375
2018-04-14T12:55:41.162Z,2120
2018-04-14T12:56:40.962Z,2185
2018-04-14T12:57:40.744Z,2460
2018-04-14T12:58:41.088Z,2530
2018-04-14T12:59:40.839Z,2380
2018-04-14T13:00:41.112Z,2310
2018-04-14T13:01:40.642Z,2410
2018-04-14T13:02:40.928Z,2410
2018-04-14T13:03:41.232Z,2260
2018-04-14T13:04:41.520Z,2440
2018-04-14T13:05:41.612Z,2465
2018-04-14T13:06:41.392Z,2420
2018-04-14T13:07:41.382Z,2555
2018-04-14T13:08:41.670Z,2610
2018-04-14T13:09:41.447Z,740
2018-04-14T13:10:41.481Z,1335
2018-04-14T13:11:41.533Z,2560
2018-04-14T13:12:41.557Z,2645
2018-04-14T13:13:41.599Z,2645
2018-04-14T13:14:41.625Z,2630
2018-04-14T13:15:41.929Z,2495
2018-04-14T13:16:41.712Z,2435
2018-04-14T13:17:41.755Z,2615
2018-04-14T13:18:41.533Z,2705
2018-04-14T13:19:41.828Z,2795
2018-04-14T13:20:41.615Z,2660
2018-04-14T13:21:41.719Z,2495
2018-04-14T13:22:42.196Z,2555
2018-04-14T13:23:41.972Z,2540
2018-04-14T13:24:41.770Z,2620
2018-04-14T13:25:41.794Z,2440
2018-04-14T13:26:41.851Z,2510
2018-04-14T13:27:42.485Z,2425
2018-04-14T13:28:42.168Z,2445
2018-04-14T13:29:42.453Z,2490
2018-04-14T13:30:42.238Z,2635
2018-04-14T13:31:42.528Z,2755
2018-04-14T13:32:42.314Z,2625
2018-04-14T13:33:42.600Z,2590
2018-04-14T13:34:42.638Z,2440
2018-04-14T13:35:42.426Z,2315
2018-04-14T13:36:42.761Z,2460
2018-04-14T13:37:42.615Z,2580
2018-04-14T13:38:42.785Z,2505
2018-04-14T13:39:42.828Z,2590
2018-04-14T13:40:42.609Z,2555
2018-04-14T13:41:42.663Z,2495
2018-04-14T13:42:42.687Z,2650
2018-04-14T13:43:42.731Z,2485
2018-04-14T13:44:42.512Z,2280
2018-04-14T13:45:42.805Z,2270
2018-04-14T13:46:43.101Z,2300
2018-04-14T13:47:42.883Z,2335
2018-04-14T13:48:43.163Z,2330
2018-04-14T13:49:42.982Z,2195
2018-04-14T13:50:42.996Z,2085
2018-04-14T13:51:43.343Z,2265
2018-04-14T13:52:43.116Z,2500
2018-04-14T13:53:43.371Z,2720
2018-04-14T13:54:42.647Z,2880
2018-04-14T13:55:43.188Z,2775
2018-04-14T13:56:43.223Z,2640
2018-04-14T13:57:43.265Z,2805
2018-04-14T13:58:43.316Z,2750
2018-04-14T13:59:43.592Z,2705
2018-04-14T14:00:43.124Z,2655
2018-04-14T14:01:43.424Z,2645
2018-04-14T14:02:43.201Z,2505